createdAt,value
2018-08-18T00:02:14.424Z,73.82
2018-08-18T00:04:42.421Z,72.99
2018-08-18T00:07:10.429Z,73.60
2018-08-18T00:09:38.431Z,73.64
2018-08-18T00:12:06.656Z,72.78
2018-08-18T00:14:34.718Z,72.68
2018-08-18T00:17:02.717Z,73.00
2018-08-18T00:19:30.713Z,73.13
2018-08-18T00:21:58.704Z,72.47
2018-08-18T00:24:26.793Z,72.80
2018-08-18T00:26:54.802Z,73.16
2018-08-18T00:29:22.796Z,73.55
2018-08-18T00:31:50.858Z,73.23
2018-08-18T00:34:18.911Z,72.73
2018-08-18T00:36:46.849Z,72.59
2018-08-18T00:39:14.840Z,71.79
2018-08-18T00:41:42.847Z,71.79
2018-08-18T00:44:11.505Z,72.29
2018-08-18T00:46:39.554Z,71.65
2018-08-18T00:49:07.678Z,71.21
2018-08-18T00:51:36.939Z,71.86
2018-08-18T00:54:06.537Z,71.62
2018-08-18T00:56:36.990Z,72.48
2018-08-18T00:59:04.994Z,71.43
2018-08-18T01:01:32.963Z,71.22
2018-08-18T01:04:02.020Z,71.80
2018-08-18T01:06:32.029Z,72.59
2018-08-18T01:09:00.843Z,72.57
2018-08-18T01:11:29.257Z,72.47
2018-08-18T01:13:58.260Z,71.36
2018-08-18T01:16:26.225Z,71.76
2018-08-18T01:18:54.956Z,71.35
2018-08-18T01:21:24.268Z,71.62
2018-08-18T01:23:52.229Z,71.65
2018-08-18T01:26:20.281Z,71.89
2018-08-18T01:28:48.941Z,72.79
2018-08-18T01:31:21.165Z,72.23
2018-08-18T01:33:49.156Z,72.67
2018-08-18T01:36:17.157Z,72.78
2018-08-18T01:38:45.168Z,72.60
2018-08-18T01:41:19.712Z,72.19
2018-08-18T01:43:49.457Z,72.66
2018-08-18T01:46:18.533Z,72.21
2018-08-18T01:48:48.549Z,72.84
2018-08-18T01:51:18.661Z,72.51
2018-08-18T01:53:47.632Z,73.25
2018-08-18T01:56:17.274Z,73.01
2018-08-18T01:58:45.274Z,73.77
2018-08-18T02:01:13.303Z,74.94
2018-08-18T02:03:41.300Z,74.50
2018-08-18T02:06:09.272Z,75.09
2018-08-18T02:08:56.005Z,74.57
2018-08-18T02:11:25.977Z,74.53
2018-08-18T02:13:55.397Z,73.96
2018-08-18T02:16:24.986Z,74.65
2018-08-18T02:18:52.989Z,74.50
2018-08-18T02:21:29.536Z,73.71
2018-08-18T02:23:58.632Z,74.07
2018-08-18T02:26:27.853Z,74.48
2018-08-18T02:28:55.858Z,73.89
2018-08-18T02:31:24.072Z,73.62
2018-08-18T02:33:52.156Z,74.93
2018-08-18T02:36:20.157Z,75.46
2018-08-18T02:38:55.568Z,75.52
2018-08-18T02:41:24.641Z,75.06
2018-08-18T02:43:52.828Z,75.07
2018-08-18T02:46:28.826Z,74.94
2018-08-18T02:48:56.962Z,74.63
2018-08-18T02:51:24.966Z,75.56
2018-08-18T02:53:52.945Z,75.35
2018-08-18T02:56:21.548Z,74.43
2018-08-18T02:58:56.657Z,75.38
2018-08-18T03:01:28.824Z,75.13
2018-08-18T03:03:57.252Z,75.82
2018-08-18T03:06:25.306Z,75.91
2018-08-18T03:08:53.294Z,75.46
2018-08-18T03:11:21.320Z,75.52
2018-08-18T03:13:49.344Z,76.40
2018-08-18T03:16:17.373Z,75.52
2018-08-18T03:18:47.222Z,75.11
2018-08-18T03:21:15.504Z,74.68
2018-08-18T03:23:55.144Z,74.50
2018-08-18T03:26:31.514Z,74.96
2018-08-18T03:28:59.572Z,75.11
2018-08-18T03:31:27.538Z,74.68
2018-08-18T03:33:55.536Z,75.25
2018-08-18T03:36:31.481Z,75.79
2018-08-18T03:38:59.791Z,75.19
2018-08-18T03:41:28.845Z,76.23
2018-08-18T03:43:57.329Z,77.22
2018-08-18T03:46:25.321Z,76.22
2018-08-18T03:48:53.629Z,74.80
2018-08-18T03:51:28.250Z,75.26
2018-08-18T03:53:56.425Z,74.46
2018-08-18T03:56:24.460Z,74.94
2018-08-18T03:58:54.408Z,74.75
2018-08-18T04:01:37.741Z,76.06
2018-08-18T04:04:06.980Z,76.72
2018-08-18T04:06:36.080Z,76.37
2018-08-18T04:09:05.952Z,75.39
2018-08-18T04:11:33.897Z,75.51
2018-08-18T04:14:01.885Z,75.31
2018-08-18T04:16:29.922Z,75.96
2018-08-18T04:19:01.416Z,74.51
2018-08-18T04:21:31.421Z,74.85
2018-08-18T04:23:59.414Z,74.83
2018-08-18T04:26:27.704Z,76.48
2018-08-18T04:28:55.994Z,76.61
2018-08-18T04:31:28.388Z,75.99
2018-08-18T04:33:56.409Z,75.10
2018-08-18T04:36:24.423Z,75.17
2018-08-18T04:38:52.413Z,74.90
2018-08-18T04:41:21.180Z,74.26
2018-08-18T04:43:49.281Z,74.54
2018-08-18T04:46:17.235Z,74.98
2018-08-18T04:48:45.228Z,77.00
2018-08-18T04:51:13.345Z,77.14
2018-08-18T04:53:41.349Z,77.21
2018-08-18T04:56:09.353Z,76.83
2018-08-18T04:58:37.336Z,77.16
2018-08-18T05:01:05.365Z,77.24
2018-08-18T05:03:33.416Z,76.12
2018-08-18T05:06:01.367Z,76.43
2018-08-18T05:08:29.364Z,76.45
2018-08-18T05:10:57.424Z,74.96
2018-08-18T05:13:25.416Z,72.76
2018-08-18T05:15:53.427Z,69.21
2018-08-18T05:18:21.485Z,64.84
2018-08-18T05:20:49.483Z,60.08
2018-08-18T05:23:23.490Z,56.49
2018-08-18T05:25:52.353Z,52.18
2018-08-18T05:28:20.598Z,48.57
2018-08-18T05:30:51.500Z,46.46
2018-08-18T05:33:19.509Z,43.34
2018-08-18T05:35:47.556Z,42.66
2018-08-18T05:38:15.624Z,39.82
2018-08-18T05:40:43.677Z,39.60
2018-08-18T05:43:11.713Z,38.98
2018-08-18T05:45:39.727Z,36.55
2018-08-18T05:48:07.748Z,35.35
2018-08-18T05:50:35.808Z,35.22
2018-08-18T05:53:16.120Z,34.35
2018-08-18T05:55:44.130Z,33.01
2018-08-18T05:58:12.468Z,31.95
2018-08-18T06:00:40.773Z,32.47
2018-08-18T06:03:09.304Z,31.00
2018-08-18T06:05:37.478Z,30.20
2018-08-18T06:08:05.982Z,29.94
2018-08-18T06:10:33.993Z,29.08
2018-08-18T06:13:07.525Z,29.50
2018-08-18T06:15:35.524Z,27.83
2018-08-18T06:18:03.605Z,28.80
2018-08-18T06:20:31.590Z,27.70
2018-08-18T06:22:59.576Z,27.88
2018-08-18T06:25:27.697Z,27.80
2018-08-18T06:27:55.718Z,27.46
2018-08-18T06:30:23.743Z,26.32
2018-08-18T06:32:51.791Z,26.45
2018-08-18T06:35:20.939Z,26.62
2018-08-18T06:37:54.032Z,25.40
2018-08-18T06:40:22.129Z,24.88
2018-08-18T06:42:50.141Z,26.05
2018-08-18T06:45:19.436Z,25.49
2018-08-18T06:47:47.439Z,26.64
2018-08-18T06:50:16.524Z,25.19
2018-08-18T06:52:45.274Z,24.50
2018-08-18T06:55:15.180Z,24.45
2018-08-18T06:57:50.247Z,23.19
2018-08-18T07:00:20.296Z,21.91
2018-08-18T07:02:48.296Z,22.43
2018-08-18T07:05:17.319Z,23.21
2018-08-18T07:07:46.008Z,22.21
2018-08-18T07:10:28.959Z,23.54
2018-08-18T07:13:01.808Z,22.25
2018-08-18T07:15:31.469Z,22.89
2018-08-18T07:17:59.472Z,22.66
2018-08-18T07:20:27.448Z,23.06
2018-08-18T07:22:55.763Z,24.21
2018-08-18T07:25:23.908Z,24.23
2018-08-18T07:27:58.193Z,23.35
2018-08-18T07:30:26.696Z,24.44
2018-08-18T07:32:54.669Z,24.56
2018-08-18T07:35:22.741Z,24.52
2018-08-18T07:37:50.730Z,24.20
2018-08-18T07:40:21.844Z,23.86
2018-08-18T07:42:54.017Z,25.49
2018-08-18T07:45:22.024Z,24.74
2018-08-18T07:47:50.116Z,24.31
2018-08-18T07:50:18.140Z,24.75
2018-08-18T07:52:46.105Z,25.41
2018-08-18T07:55:14.152Z,25.62
2018-08-18T07:57:46.323Z,23.95
2018-08-18T08:00:14.334Z,24.93
2018-08-18T08:02:42.365Z,24.40
2018-08-18T08:05:10.425Z,25.24
2018-08-18T08:07:39.282Z,24.80
2018-08-18T08:10:07.333Z,24.17
2018-08-18T08:12:35.454Z,24.11
2018-08-18T08:15:03.353Z,24.29
2018-08-18T08:17:31.333Z,25.24
2018-08-18T08:19:59.340Z,24.68
2018-08-18T08:22:27.409Z,23.96
2018-08-18T08:24:56.289Z,24.47
2018-08-18T08:27:24.286Z,24.37
2018-08-18T08:29:52.320Z,24.31
2018-08-18T08:32:20.312Z,25.04
2018-08-18T08:34:48.304Z,24.17
2018-08-18T08:37:17.062Z,24.85
2018-08-18T08:39:46.081Z,24.51
2018-08-18T08:42:14.076Z,25.50
2018-08-18T08:44:43.129Z,25.49
2018-08-18T08:47:13.753Z,26.15
2018-08-18T08:49:41.772Z,26.58
2018-08-18T08:52:09.772Z,29.68
2018-08-18T08:54:38.915Z,29.80
2018-08-18T08:57:08.303Z,31.35
2018-08-18T08:59:37.404Z,31.53
2018-08-18T09:02:06.148Z,31.69
2018-08-18T09:04:34.788Z,32.23
2018-08-18T09:07:04.447Z,31.25
2018-08-18T09:09:32.520Z,30.41
2018-08-18T09:12:00.555Z,32.29
2018-08-18T09:14:28.550Z,32.70
2018-08-18T09:16:56.585Z,31.96
2018-08-18T09:19:24.605Z,33.23
2018-08-18T09:21:53.705Z,33.29
2018-08-18T09:24:23.709Z,34.33
2018-08-18T09:26:53.677Z,34.61
2018-08-18T09:29:22.049Z,34.11
2018-08-18T09:31:50.172Z,35.39
2018-08-18T09:34:18.208Z,35.62
2018-08-18T09:39:13.220Z,35.69
2018-08-18T09:41:41.264Z,35.52
2018-08-18T09:44:14.675Z,35.02
2018-08-18T09:46:43.449Z,34.91
2018-08-18T09:49:11.473Z,34.55
2018-08-18T09:51:39.517Z,34.31
2018-08-18T09:54:07.512Z,35.48
2018-08-18T09:56:35.525Z,35.11
2018-08-18T09:59:03.520Z,34.78
2018-08-18T10:01:31.611Z,35.90
2018-08-18T10:03:59.617Z,34.80
2018-08-18T10:06:27.663Z,35.53
2018-08-18T10:08:55.820Z,37.43
2018-08-18T10:11:23.903Z,33.54
2018-08-18T10:13:51.918Z,34.53
2018-08-18T10:16:19.966Z,35.71
2018-08-18T10:18:48.448Z,35.61
2018-08-18T10:21:16.492Z,35.51
2018-08-18T10:23:44.597Z,34.90
2018-08-18T10:26:12.782Z,33.68
2018-08-18T10:28:41.181Z,34.19
2018-08-18T10:31:09.386Z,33.86
2018-08-18T10:33:37.440Z,33.90
2018-08-18T10:36:05.468Z,33.01
2018-08-18T10:38:33.493Z,32.71
2018-08-18T10:41:03.560Z,33.54
2018-08-18T10:43:32.059Z,33.13
2018-08-18T10:46:00.132Z,32.83
2018-08-18T10:48:28.137Z,33.06
2018-08-18T10:51:38.870Z,32.74
2018-08-18T10:54:06.815Z,33.36
2018-08-18T10:56:34.830Z,33.14
2018-08-18T10:59:20.272Z,32.63
2018-08-18T11:02:00.437Z,33.79
2018-08-18T11:04:29.539Z,34.12
2018-08-18T11:06:57.540Z,33.05
2018-08-18T11:09:25.545Z,31.59
2018-08-18T11:11:53.886Z,35.34
2018-08-18T11:14:22.016Z,31.54
2018-08-18T11:16:50.033Z,33.56
2018-08-18T11:19:18.078Z,32.90
2018-08-18T11:21:46.098Z,31.27
2018-08-18T11:24:14.105Z,31.88
2018-08-18T11:26:42.125Z,32.63
2018-08-18T11:29:17.222Z,32.40
2018-08-18T11:31:46.529Z,31.89
2018-08-18T11:34:16.670Z,33.38
2018-08-18T11:36:59.233Z,33.13
2018-08-18T11:39:28.486Z,31.74
2018-08-18T11:41:57.243Z,33.81
2018-08-18T11:44:25.245Z,33.24
2018-08-18T11:46:53.337Z,33.53
2018-08-18T11:49:21.568Z,33.04
2018-08-18T11:51:49.733Z,32.38
2018-08-18T11:54:17.812Z,33.31
2018-08-18T11:56:51.152Z,33.43
2018-08-18T11:59:19.161Z,33.26
2018-08-18T12:01:49.242Z,31.86
2018-08-18T12:04:17.661Z,33.50
2018-08-18T12:06:51.024Z,31.79
2018-08-18T12:09:19.045Z,31.81
2018-08-18T12:11:47.968Z,32.24
2018-08-18T12:14:16.276Z,32.40
2018-08-18T12:16:44.267Z,33.12
2018-08-18T12:19:12.293Z,32.44
2018-08-18T12:21:44.022Z,32.39
2018-08-18T12:24:17.692Z,31.99
2018-08-18T12:26:57.096Z,30.18
2018-08-18T12:29:25.132Z,31.58
2018-08-18T12:31:53.119Z,29.73
2018-08-18T12:34:21.122Z,30.37
2018-08-18T12:36:49.193Z,29.73
2018-08-18T12:39:17.108Z,29.59
2018-08-18T12:41:45.116Z,29.58
2018-08-18T12:44:14.250Z,30.29
2018-08-18T12:46:47.741Z,30.60
2018-08-18T12:49:15.773Z,30.01
2018-08-18T12:51:44.700Z,31.62
2018-08-18T12:54:12.708Z,29.71
2018-08-18T12:56:40.712Z,30.55
2018-08-18T12:59:08.732Z,29.62
2018-08-18T13:01:46.328Z,29.96
2018-08-18T13:04:15.686Z,29.42
2018-08-18T13:06:51.646Z,31.37
2018-08-18T13:09:21.000Z,29.56
2018-08-18T13:11:50.201Z,29.42
2018-08-18T13:14:20.554Z,29.70
2018-08-18T13:16:48.521Z,30.59
2018-08-18T13:19:18.449Z,30.05
2018-08-18T13:21:46.447Z,29.54
2018-08-18T13:24:14.539Z,29.88
2018-08-18T13:26:42.457Z,29.83
2018-08-18T13:29:10.463Z,29.34
2018-08-18T13:31:41.529Z,29.30
2018-08-18T13:34:11.356Z,29.42
2018-08-18T13:36:40.533Z,28.44
2018-08-18T13:39:12.084Z,28.70
2018-08-18T13:41:40.260Z,29.45
2018-08-18T13:44:08.289Z,30.79
2018-08-18T13:46:50.169Z,29.76
2018-08-18T13:49:23.175Z,29.30
2018-08-18T13:51:51.281Z,31.13
2018-08-18T13:54:19.458Z,31.33
2018-08-18T13:56:47.484Z,31.16
2018-08-18T13:59:24.432Z,29.55
2018-08-18T14:01:52.489Z,30.35
2018-08-18T14:04:26.046Z,29.49
2018-08-18T14:06:55.208Z,29.85
2018-08-18T14:09:23.212Z,28.90
2018-08-18T14:11:55.288Z,29.63
2018-08-18T14:14:23.360Z,28.17
2018-08-18T14:16:51.376Z,29.66
2018-08-18T14:19:21.209Z,30.36
2018-08-18T14:21:52.973Z,29.69
2018-08-18T14:24:25.150Z,28.53
2018-08-18T14:26:58.596Z,29.82
2018-08-18T14:29:26.678Z,29.69
2018-08-18T14:31:54.759Z,29.24
2018-08-18T14:34:22.889Z,31.16
2018-08-18T14:36:51.396Z,29.28
2018-08-18T14:39:31.588Z,30.10
2018-08-18T14:41:59.764Z,30.33
2018-08-18T14:44:27.911Z,29.32
2018-08-18T14:46:56.639Z,29.69
2018-08-18T14:49:24.665Z,29.94
2018-08-18T14:51:52.728Z,29.24
2018-08-18T14:54:24.920Z,28.51
2018-08-18T14:56:52.921Z,30.24
2018-08-18T14:59:25.466Z,29.29
2018-08-18T15:01:53.525Z,30.22
2018-08-18T15:04:21.584Z,30.54
2018-08-18T15:06:49.573Z,30.18
2018-08-18T15:09:30.989Z,29.48
2018-08-18T15:12:00.145Z,31.49
2018-08-18T15:14:28.261Z,30.15
2018-08-18T15:16:56.508Z,29.22
2018-08-18T15:19:24.573Z,31.69
2018-08-18T15:21:54.043Z,31.70
2018-08-18T15:24:22.343Z,30.58
2018-08-18T15:26:51.752Z,32.22
2018-08-18T15:29:19.761Z,30.44
2018-08-18T15:31:48.411Z,30.03
2018-08-18T15:34:16.517Z,29.89
2018-08-18T15:36:44.550Z,30.79
2018-08-18T15:39:12.698Z,30.75
2018-08-18T15:41:40.622Z,31.52
2018-08-18T15:44:10.104Z,32.09
2018-08-18T15:46:38.129Z,33.14
2018-08-18T15:49:06.153Z,31.72
2018-08-18T15:51:34.164Z,31.91
2018-08-18T15:54:03.317Z,31.37
2018-08-18T15:56:32.613Z,32.33
2018-08-18T15:59:01.300Z,31.31
2018-08-18T16:01:30.690Z,31.89
2018-08-18T16:04:00.541Z,32.06
2018-08-18T16:06:28.577Z,31.93
2018-08-18T16:08:56.743Z,32.93
2018-08-18T16:11:24.889Z,33.69
2018-08-18T16:13:53.032Z,32.80
2018-08-18T16:16:20.940Z,33.66
2018-08-18T16:18:49.286Z,32.68
2018-08-18T16:21:22.245Z,33.34
2018-08-18T16:23:50.400Z,34.28
2018-08-18T16:26:18.345Z,32.85
2018-08-18T16:28:46.413Z,33.06
2018-08-18T16:31:14.556Z,32.59
2018-08-18T16:33:42.899Z,32.78
2018-08-18T16:36:10.894Z,33.24
2018-08-18T16:38:38.901Z,34.99
2018-08-18T16:41:06.916Z,35.36
2018-08-18T16:43:36.262Z,34.90
2018-08-18T16:46:22.094Z,36.18
2018-08-18T16:48:50.799Z,34.97
2018-08-18T16:51:18.854Z,36.20
2018-08-18T16:53:47.213Z,35.08
2018-08-18T16:56:26.468Z,35.39
2018-08-18T16:58:56.592Z,36.39
2018-08-18T17:01:24.865Z,35.45
2018-08-18T17:03:53.044Z,36.48
2018-08-18T17:06:21.032Z,36.94
2018-08-18T17:08:49.040Z,36.28
2018-08-18T17:11:17.058Z,36.04
2018-08-18T17:13:45.063Z,35.44
2018-08-18T17:16:13.073Z,36.03
2018-08-18T17:18:41.100Z,36.85
2018-08-18T17:21:09.237Z,36.35
2018-08-18T17:23:38.409Z,36.54
2018-08-18T17:26:06.559Z,37.07
2018-08-18T17:28:34.997Z,36.39
2018-08-18T17:31:04.189Z,36.09
2018-08-18T17:33:32.684Z,37.00
2018-08-18T17:36:00.720Z,37.38
2018-08-18T17:38:28.773Z,37.14
2018-08-18T17:40:56.799Z,37.37
2018-08-18T17:43:24.816Z,37.74
2018-08-18T17:45:53.864Z,36.93
2018-08-18T17:48:22.877Z,36.97
2018-08-18T17:50:51.121Z,37.24
2018-08-18T17:53:19.224Z,37.67
2018-08-18T17:55:55.583Z,38.55
2018-08-18T17:58:24.089Z,37.62
2018-08-18T18:00:52.080Z,38.03
2018-08-18T18:03:20.076Z,38.10
2018-08-18T18:05:48.081Z,39.21
2018-08-18T18:08:16.101Z,38.67
2018-08-18T18:10:44.102Z,38.51
2018-08-18T18:13:17.877Z,38.47
2018-08-18T18:15:47.268Z,39.46
2018-08-18T18:18:17.397Z,38.82
2018-08-18T18:20:49.500Z,38.88
2018-08-18T18:23:18.210Z,38.82
2018-08-18T18:25:46.218Z,39.82
2018-08-18T18:28:14.300Z,39.15
2018-08-18T18:30:42.288Z,39.12
2018-08-18T18:33:10.968Z,39.81
2018-08-18T18:35:39.041Z,39.10
2018-08-18T18:38:07.119Z,39.15
2018-08-18T18:40:36.725Z,39.06
2018-08-18T18:43:04.824Z,39.52
2018-08-18T18:45:32.836Z,40.38
2018-08-18T18:48:00.865Z,40.38
2018-08-18T18:50:28.921Z,39.86
2018-08-18T18:52:56.924Z,40.48
2018-08-18T18:55:24.944Z,39.96
2018-08-18T18:58:05.541Z,40.21
2018-08-18T19:00:35.003Z,40.91
2018-08-18T19:03:03.364Z,41.10
2018-08-18T19:05:32.100Z,40.74
2018-08-18T19:08:10.221Z,41.78
2018-08-18T19:10:38.242Z,41.70
2018-08-18T19:13:06.621Z,42.12
2018-08-18T19:15:34.620Z,42.79
2018-08-18T19:18:02.704Z,43.25
2018-08-18T19:20:31.181Z,43.23
2018-08-18T19:23:21.880Z,43.39
2018-08-18T19:25:51.122Z,44.37
2018-08-18T19:28:20.343Z,43.50
2018-08-18T19:30:48.355Z,43.59
2018-08-18T19:33:17.001Z,44.92
2018-08-18T19:35:50.029Z,44.13
2018-08-18T19:38:19.120Z,45.33
2018-08-18T19:40:48.335Z,44.79
2018-08-18T19:43:20.389Z,45.30
2018-08-18T19:45:48.644Z,45.25
2018-08-18T19:48:19.140Z,45.75
2018-08-18T19:50:53.252Z,46.07
2018-08-18T19:53:22.924Z,45.61
2018-08-18T19:55:51.588Z,47.19
2018-08-18T19:58:19.647Z,46.42
2018-08-18T20:00:47.735Z,47.42
2018-08-18T20:03:16.862Z,46.92
2018-08-18T20:05:44.867Z,47.95
2018-08-18T20:08:16.084Z,48.13
2018-08-18T20:10:49.661Z,48.19
2018-08-18T20:13:18.555Z,48.62
2018-08-18T20:15:48.917Z,48.51
2018-08-18T20:18:17.154Z,49.15
2018-08-18T20:20:45.196Z,49.05
2018-08-18T20:23:15.232Z,49.54
2018-08-18T20:25:43.281Z,50.72
2018-08-18T20:28:11.558Z,50.58
2018-08-18T20:30:39.584Z,50.65
2018-08-18T20:33:07.597Z,51.43
2018-08-18T20:35:35.736Z,52.50
2018-08-18T20:38:03.985Z,52.24
2018-08-18T20:40:32.100Z,52.21
2018-08-18T20:43:00.210Z,52.97
2018-08-18T20:45:36.654Z,52.73
2018-08-18T20:48:05.741Z,53.40
2018-08-18T20:50:33.808Z,54.04
2018-08-18T20:53:17.087Z,54.10
2018-08-18T20:55:56.966Z,53.41
2018-08-18T20:58:25.207Z,53.94
2018-08-18T21:00:53.254Z,54.20
2018-08-18T21:03:21.280Z,54.61
2018-08-18T21:05:49.283Z,54.35
2018-08-18T21:08:18.214Z,55.61
2018-08-18T21:10:46.320Z,54.73
2018-08-18T21:13:14.353Z,55.14
2018-08-18T21:15:42.489Z,55.01
2018-08-18T21:18:18.124Z,55.77
2018-08-18T21:20:46.203Z,55.78
2018-08-18T21:23:14.177Z,56.61
2018-08-18T21:25:44.869Z,55.97
2018-08-18T21:28:13.454Z,55.78
2018-08-18T21:30:41.508Z,56.79
2018-08-18T21:33:09.521Z,56.42
2018-08-18T21:35:38.105Z,56.02
2018-08-18T21:38:06.697Z,56.70
2018-08-18T21:40:34.785Z,56.12
2018-08-18T21:43:02.800Z,56.42
2018-08-18T21:45:36.234Z,56.54
2018-08-18T21:48:04.422Z,55.97
2018-08-18T21:50:32.473Z,56.77
2018-08-18T21:53:00.474Z,55.61
2018-08-18T21:55:29.180Z,56.27
2018-08-18T21:57:58.285Z,57.33
2018-08-18T22:00:31.588Z,57.01
2018-08-18T22:02:59.593Z,57.26
2018-08-18T22:05:30.979Z,57.74
2018-08-18T22:07:59.452Z,57.85
2018-08-18T22:10:27.606Z,58.33
2018-08-18T22:12:55.697Z,57.83
2018-08-18T22:15:23.864Z,58.47
2018-08-18T22:17:52.695Z,58.86
2018-08-18T22:20:21.856Z,58.88
2018-08-18T22:22:49.877Z,60.14
2018-08-18T22:25:17.849Z,59.64
2018-08-18T22:27:45.861Z,60.02
2018-08-18T22:30:15.264Z,60.31
2018-08-18T22:32:44.342Z,60.01
2018-08-18T22:35:12.961Z,60.47
2018-08-18T22:37:41.234Z,59.96
2018-08-18T22:40:10.320Z,59.22
2018-08-18T22:42:38.541Z,60.76
2018-08-18T22:45:18.741Z,60.05
2018-08-18T22:47:46.816Z,60.65
2018-08-18T22:50:15.511Z,61.21
2018-08-18T22:52:46.409Z,62.12
2018-08-18T22:55:14.428Z,62.32
2018-08-18T22:57:42.808Z,62.34
2018-08-18T23:00:10.806Z,61.10
2018-08-18T23:02:38.805Z,61.18
2018-08-18T23:05:06.848Z,61.78
2018-08-18T23:07:34.824Z,62.07
2018-08-18T23:10:02.811Z,62.37
2018-08-18T23:12:30.820Z,62.06
2018-08-18T23:14:58.824Z,61.88
2018-08-18T23:17:26.818Z,62.96
2018-08-18T23:19:54.815Z,62.61
2018-08-18T23:22:37.341Z,62.60
2018-08-18T23:25:05.337Z,62.66
2018-08-18T23:27:33.352Z,62.73
2018-08-18T23:30:01.357Z,65.05
2018-08-18T23:32:29.364Z,65.81
2018-08-18T23:34:58.112Z,64.48
2018-08-18T23:37:26.108Z,65.58
2018-08-18T23:39:55.577Z,64.53
2018-08-18T23:42:24.772Z,64.01
2018-08-18T23:44:52.829Z,64.60
2018-08-18T23:47:20.917Z,63.91
2018-08-18T23:49:48.929Z,64.71
2018-08-18T23:52:16.932Z,65.19
2018-08-18T23:54:44.941Z,64.26
2018-08-18T23:57:15.234Z,65.05
2018-08-18T23:59:43.336Z,64.04
